createdAt,value
2023-04-16T00:02:13.128Z,101157.22
2023-04-16T00:04:40.130Z,101161.72
2023-04-16T00:07:07.680Z,101157.19
2023-04-16T00:09:34.454Z,101162.59
2023-04-16T00:12:01.282Z,101156.28
2023-04-16T00:14:30.093Z,101159.88
2023-04-16T00:16:56.618Z,101153.59
2023-04-16T00:19:23.725Z,101159.88
2023-04-16T00:21:50.289Z,101168.91
2023-04-16T00:24:17.153Z,101162.59
2023-04-16T00:26:45.044Z,101161.66
2023-04-16T00:29:12.185Z,101166.16
2023-04-16T00:31:38.823Z,101155.34
2023-04-16T00:34:05.760Z,101155.31
2023-04-16T00:36:32.254Z,101168.78
2023-04-16T00:38:59.156Z,101165.19
2023-04-16T00:41:26.754Z,101157.09
2023-04-16T00:43:57.711Z,101167.00
2023-04-16T00:46:26.304Z,101171.47
2023-04-16T00:48:54.666Z,101164.28
2023-04-16T00:51:22.165Z,101164.28
2023-04-16T00:53:49.059Z,101165.16
2023-04-16T00:56:17.001Z,101175.97
2023-04-16T00:58:44.507Z,101177.72
2023-04-16T01:01:14.127Z,101183.13
2023-04-16T01:03:45.937Z,101183.13
2023-04-16T01:06:13.387Z,101193.91
2023-04-16T01:08:40.610Z,101186.72
2023-04-16T01:11:07.293Z,101185.78
2023-04-16T01:13:39.083Z,101183.09
2023-04-16T01:16:11.425Z,101194.78
2023-04-16T01:18:38.876Z,101197.50
2023-04-16T01:21:06.257Z,101199.25
2023-04-16T01:23:33.371Z,101204.66
2023-04-16T01:25:59.963Z,101204.66
2023-04-16T01:28:27.723Z,101203.72
2023-04-16T01:30:55.399Z,101207.31
2023-04-16T01:33:54.805Z,101214.50
2023-04-16T01:36:22.391Z,101206.41
2023-04-16T01:38:49.850Z,101201.91
2023-04-16T01:41:16.555Z,101201.91
2023-04-16T01:43:43.140Z,101220.78
2023-04-16T01:46:20.611Z,101209.13
2023-04-16T01:48:48.296Z,101216.25
2023-04-16T01:51:14.992Z,101223.41
2023-04-16T01:53:41.618Z,101223.41
2023-04-16T01:56:08.189Z,101224.31
2023-04-16T01:58:36.321Z,101231.50
2023-04-16T02:01:03.688Z,101235.09
2023-04-16T02:03:31.292Z,101235.03
2023-04-16T02:05:58.165Z,101236.81
2023-04-16T02:08:26.080Z,101230.50
2023-04-16T02:10:53.150Z,101233.22
2023-04-16T02:13:19.901Z,101236.81
2023-04-16T02:15:48.960Z,101233.19
2023-04-16T02:18:19.834Z,101235.91
2023-04-16T02:20:47.917Z,101232.25
2023-04-16T02:23:15.804Z,101229.56
2023-04-16T02:25:45.021Z,101238.53
2023-04-16T02:28:15.535Z,101236.72
2023-04-16T02:30:43.839Z,101237.63
2023-04-16T02:33:12.659Z,101242.09
2023-04-16T02:35:46.347Z,101246.59
2023-04-16T02:38:12.905Z,101242.09
2023-04-16T02:40:39.591Z,101245.66
2023-04-16T02:43:06.610Z,101248.34
2023-04-16T02:45:33.212Z,101242.09
2023-04-16T02:48:00.758Z,101253.75
2023-04-16T02:50:32.555Z,101245.66
2023-04-16T02:52:59.286Z,101249.22
2023-04-16T02:55:26.720Z,101247.34
2023-04-16T02:57:54.462Z,101254.59
2023-04-16T03:00:21.118Z,101254.59
2023-04-16T03:02:47.867Z,101259.94
2023-04-16T03:05:14.710Z,101259.00
2023-04-16T03:07:41.341Z,101264.38
2023-04-16T03:10:08.969Z,101274.28
2023-04-16T03:12:36.787Z,101275.16
2023-04-16T03:15:07.095Z,101268.88
2023-04-16T03:17:33.924Z,101261.69
2023-04-16T03:20:00.865Z,101267.13
2023-04-16T03:22:27.375Z,101262.59
2023-04-16T03:24:53.937Z,101271.59
2023-04-16T03:27:20.476Z,101281.47
2023-04-16T03:29:50.216Z,101280.59
2023-04-16T03:32:17.351Z,101275.19
2023-04-16T03:34:44.296Z,101270.75
2023-04-16T03:37:12.038Z,101268.94
2023-04-16T03:39:38.886Z,101270.72
2023-04-16T03:42:05.496Z,101277.91
2023-04-16T03:44:33.481Z,101272.47
2023-04-16T03:47:01.300Z,101283.22
2023-04-16T03:49:27.993Z,101277.84
2023-04-16T03:51:55.689Z,101276.94
2023-04-16T03:54:22.994Z,101278.78
2023-04-16T03:56:57.017Z,101276.03
2023-04-16T03:59:25.256Z,101274.25
2023-04-16T04:01:52.023Z,101276.97
2023-04-16T04:04:18.745Z,101285.06
2023-04-16T04:06:46.541Z,101277.97
2023-04-16T04:09:16.279Z,101278.78
2023-04-16T04:11:44.296Z,101284.16
2023-04-16T04:14:10.978Z,101285.03
2023-04-16T04:16:37.637Z,101285.03
2023-04-16T04:19:04.290Z,101286.78
2023-04-16T04:21:31.639Z,101288.63
2023-04-16T04:23:58.328Z,101285.03
2023-04-16T04:26:25.007Z,101289.47
2023-04-16T04:28:51.619Z,101285.91
2023-04-16T04:31:18.910Z,101288.59
2023-04-16T04:33:45.813Z,101289.47
2023-04-16T04:36:12.423Z,101294.00
2023-04-16T04:38:39.121Z,101288.59
2023-04-16T04:41:05.655Z,101298.44
2023-04-16T04:43:35.633Z,101294.84
2023-04-16T04:46:02.838Z,101302.06
2023-04-16T04:48:34.766Z,101309.25
2023-04-16T04:51:03.476Z,101306.53
2023-04-16T04:53:31.388Z,101317.34
2023-04-16T04:56:05.488Z,101311.97
2023-04-16T04:58:42.665Z,101314.66
2023-04-16T05:01:09.366Z,101321.00
2023-04-16T05:03:36.264Z,101316.47
2023-04-16T05:06:03.229Z,101327.19
2023-04-16T05:08:29.752Z,101328.09
2023-04-16T05:10:57.101Z,101325.41
2023-04-16T05:13:24.043Z,101325.44
2023-04-16T05:15:50.591Z,101329.94
2023-04-16T05:18:17.056Z,101333.50
2023-04-16T05:20:43.930Z,101331.78
2023-04-16T05:23:10.458Z,101340.75
2023-04-16T05:25:37.007Z,101338.94
2023-04-16T05:28:03.684Z,101349.72
2023-04-16T05:30:30.635Z,101349.78
2023-04-16T05:32:57.818Z,101351.53
2023-04-16T05:35:24.395Z,101356.03
2023-04-16T05:37:51.164Z,101356.00
2023-04-16T05:40:18.121Z,101354.19
2023-04-16T05:42:44.632Z,101355.16
2023-04-16T05:45:11.439Z,101355.19
2023-04-16T05:47:38.334Z,101365.94
2023-04-16T05:50:05.495Z,101356.09
2023-04-16T05:52:32.333Z,101369.56
2023-04-16T05:55:01.880Z,101371.31
2023-04-16T05:57:29.254Z,101376.72
2023-04-16T05:59:55.791Z,101376.72
2023-04-16T06:02:22.664Z,101374.03
2023-04-16T06:04:49.874Z,101375.88
2023-04-16T06:07:16.576Z,101385.75
2023-04-16T06:09:43.182Z,101395.63
2023-04-16T06:12:09.782Z,101398.38
2023-04-16T06:14:36.294Z,101397.50
2023-04-16T06:17:03.879Z,101405.59
2023-04-16T06:19:30.492Z,101395.69
2023-04-16T06:21:57.936Z,101394.81
2023-04-16T06:24:24.548Z,101396.63
2023-04-16T06:26:51.354Z,101399.41
2023-04-16T06:29:18.090Z,101402.13
2023-04-16T06:31:44.822Z,101402.97
2023-04-16T06:34:11.513Z,101409.31
2023-04-16T06:36:38.239Z,101405.75
2023-04-16T06:39:05.127Z,101409.38
2023-04-16T06:41:31.978Z,101398.63
2023-04-16T06:43:58.546Z,101400.44
2023-04-16T06:46:25.244Z,101405.78
2023-04-16T06:48:52.010Z,101410.31
2023-04-16T06:51:19.126Z,101412.09
2023-04-16T06:53:45.769Z,101422.03
2023-04-16T06:56:12.341Z,101412.19
2023-04-16T06:58:39.252Z,101414.88
2023-04-16T07:01:05.985Z,101417.66
2023-04-16T07:03:33.756Z,101419.41
2023-04-16T07:06:01.750Z,101417.66
2023-04-16T07:08:28.519Z,101431.22
2023-04-16T07:10:55.417Z,101424.94
2023-04-16T07:13:22.125Z,101423.13
2023-04-16T07:15:48.909Z,101416.88
2023-04-16T07:18:16.542Z,101418.69
2023-04-16T07:20:43.377Z,101426.78
2023-04-16T07:23:10.533Z,101425.91
2023-04-16T07:25:37.832Z,101426.84
2023-04-16T07:28:04.692Z,101432.25
2023-04-16T07:30:34.223Z,101435.00
2023-04-16T07:33:02.955Z,101426.97
2023-04-16T07:35:30.716Z,101433.28
2023-04-16T07:37:57.709Z,101435.09
2023-04-16T07:40:24.726Z,101436.94
2023-04-16T07:42:51.507Z,101447.78
2023-04-16T07:45:18.885Z,101441.50
2023-04-16T07:47:46.025Z,101444.19
2023-04-16T07:50:12.953Z,101447.88
2023-04-16T07:52:41.586Z,101458.66
2023-04-16T07:55:09.270Z,101456.88
2023-04-16T07:57:36.095Z,101455.06
2023-04-16T08:00:05.192Z,101465.88
2023-04-16T08:02:39.799Z,101472.19
2023-04-16T08:05:07.929Z,101465.91
2023-04-16T08:07:34.932Z,101464.16
2023-04-16T08:10:02.448Z,101471.34
2023-04-16T08:12:32.147Z,101472.25
2023-04-16T08:14:59.169Z,101474.94
2023-04-16T08:17:26.397Z,101483.91
2023-04-16T08:19:53.231Z,101474.94
2023-04-16T08:22:20.867Z,101482.09
2023-04-16T08:24:48.335Z,101481.22
2023-04-16T08:27:19.923Z,101479.41
2023-04-16T08:29:48.148Z,101486.63
2023-04-16T08:32:15.220Z,101491.13
2023-04-16T08:34:42.614Z,101487.50
2023-04-16T08:37:09.828Z,101496.56
2023-04-16T08:39:36.733Z,101498.34
2023-04-16T08:42:06.066Z,101497.44
2023-04-16T08:44:37.375Z,101499.25
2023-04-16T08:47:09.361Z,101500.19
2023-04-16T08:49:43.132Z,101501.06
2023-04-16T08:52:20.136Z,101498.34
2023-04-16T08:55:01.438Z,101510.06
2023-04-16T08:57:44.587Z,101510.06
2023-04-16T09:00:11.976Z,101502.88
2023-04-16T09:02:39.389Z,101499.28
2023-04-16T09:05:16.999Z,101499.34
2023-04-16T09:07:48.322Z,101511.03
2023-04-16T09:10:20.327Z,101509.22
2023-04-16T09:12:49.710Z,101520.03
2023-04-16T09:15:16.339Z,101504.72
2023-04-16T09:17:42.991Z,101512.84
2023-04-16T09:20:10.885Z,101514.66
2023-04-16T09:22:37.839Z,101516.50
2023-04-16T09:25:04.861Z,101518.31
2023-04-16T09:27:31.998Z,101521.91
2023-04-16T09:29:58.983Z,101521.94
2023-04-16T09:32:27.740Z,101521.91
2023-04-16T09:34:58.699Z,101532.69
2023-04-16T09:37:29.634Z,101530.88
2023-04-16T09:40:02.158Z,101532.66
2023-04-16T09:42:31.765Z,101538.97
2023-04-16T09:45:01.392Z,101539.88
2023-04-16T09:47:45.359Z,101547.03
2023-04-16T09:50:18.464Z,101537.16
2023-04-16T09:52:49.504Z,101548.84
2023-04-16T09:55:16.221Z,101542.56
2023-04-16T09:57:42.824Z,101546.16
2023-04-16T10:00:10.782Z,101548.84
2023-04-16T10:02:41.931Z,101549.78
2023-04-16T10:05:09.153Z,101553.38
2023-04-16T10:07:37.540Z,101561.47
2023-04-16T10:10:04.854Z,101556.06
2023-04-16T10:12:32.975Z,101563.28
2023-04-16T10:15:00.009Z,101566.88
2023-04-16T10:17:30.030Z,101570.50
2023-04-16T10:19:58.402Z,101574.09
2023-04-16T10:22:26.328Z,101566.00
2023-04-16T10:24:53.793Z,101570.50
2023-04-16T10:27:20.672Z,101566.88
2023-04-16T10:29:48.928Z,101568.72
2023-04-16T10:32:18.405Z,101568.69
2023-04-16T10:34:47.762Z,101566.94
2023-04-16T10:37:17.956Z,101570.56
2023-04-16T10:39:45.208Z,101577.78
2023-04-16T10:42:13.123Z,101576.91
2023-04-16T10:44:44.302Z,101574.22
2023-04-16T10:47:13.619Z,101576.91
2023-04-16T10:49:41.538Z,101567.97
2023-04-16T10:52:13.673Z,101581.44
2023-04-16T10:54:41.620Z,101579.66
2023-04-16T10:57:16.077Z,101577.88
2023-04-16T10:59:44.011Z,101576.09
2023-04-16T11:02:17.407Z,101573.41
2023-04-16T11:04:48.980Z,101581.56
2023-04-16T11:07:18.940Z,101582.44
2023-04-16T11:09:50.981Z,101577.94
2023-04-16T11:12:35.846Z,101576.19
2023-04-16T11:15:08.944Z,101587.00
2023-04-16T11:17:43.964Z,101586.13
2023-04-16T11:20:21.515Z,101586.09
2023-04-16T11:22:54.951Z,101579.78
2023-04-16T11:25:29.725Z,101590.59
2023-04-16T11:27:59.094Z,101588.81
2023-04-16T11:30:34.608Z,101585.19
2023-04-16T11:33:09.431Z,101586.13
2023-04-16T11:35:36.065Z,101581.59
2023-04-16T11:38:02.822Z,101585.22
2023-04-16T11:40:31.701Z,101596.97
2023-04-16T11:43:03.897Z,101596.06
2023-04-16T11:45:31.394Z,101592.44
2023-04-16T11:47:58.524Z,101590.66
2023-04-16T11:50:27.473Z,101586.19
2023-04-16T11:53:03.685Z,101594.28
2023-04-16T11:55:31.037Z,101588.91
2023-04-16T11:57:57.823Z,101588.00
2023-04-16T12:00:25.084Z,101586.25
2023-04-16T12:02:53.986Z,101590.78
2023-04-16T12:05:38.926Z,101590.78
2023-04-16T12:08:11.503Z,101584.47
2023-04-16T12:10:54.042Z,101598.91
2023-04-16T12:13:20.844Z,101589.88
2023-04-16T12:15:49.662Z,101601.63
2023-04-16T12:18:17.549Z,101597.97
2023-04-16T12:20:45.261Z,101599.78
2023-04-16T12:23:25.193Z,101602.47
2023-04-16T12:25:52.668Z,101592.50
2023-04-16T12:28:34.915Z,101595.22
2023-04-16T12:31:03.275Z,101598.78
2023-04-16T12:33:30.199Z,101601.47
2023-04-16T12:35:57.363Z,101595.16
2023-04-16T12:38:25.446Z,101602.34
2023-04-16T12:40:52.708Z,101596.03
2023-04-16T12:43:21.372Z,101597.81
2023-04-16T12:45:48.589Z,101599.59
2023-04-16T12:48:15.512Z,101594.19
2023-04-16T12:50:44.111Z,101601.34
2023-04-16T12:53:11.775Z,101602.28
2023-04-16T12:55:38.469Z,101603.16
2023-04-16T12:58:05.368Z,101601.31
2023-04-16T13:00:32.679Z,101597.59
2023-04-16T13:02:59.818Z,101603.03
2023-04-16T13:05:27.079Z,101601.22
2023-04-16T13:07:54.052Z,101602.09
2023-04-16T13:10:23.362Z,101606.56
2023-04-16T13:12:50.320Z,101603.84
2023-04-16T13:15:17.231Z,101598.41
2023-04-16T13:17:43.889Z,101602.94
2023-04-16T13:20:11.323Z,101600.22
2023-04-16T13:22:42.624Z,101610.13
2023-04-16T13:25:09.925Z,101606.47
2023-04-16T13:27:37.020Z,101600.97
2023-04-16T13:30:04.691Z,101608.09
2023-04-16T13:32:31.756Z,101608.00
2023-04-16T13:35:01.892Z,101602.59
2023-04-16T13:37:28.733Z,101604.47
2023-04-16T13:39:56.545Z,101613.50
2023-04-16T13:42:23.790Z,101602.66
2023-04-16T13:44:53.005Z,101606.25
2023-04-16T13:47:19.760Z,101606.25
2023-04-16T13:49:50.445Z,101599.06
2023-04-16T13:52:20.122Z,101601.81
2023-04-16T13:54:46.909Z,101596.41
2023-04-16T13:57:21.996Z,101601.81
2023-04-16T13:59:48.820Z,101598.22
2023-04-16T14:02:15.722Z,101599.06
2023-04-16T14:04:42.562Z,101601.75
2023-04-16T14:07:09.460Z,101597.22
2023-04-16T14:09:36.483Z,101595.38
2023-04-16T14:12:03.712Z,101598.97
2023-04-16T14:14:30.802Z,101597.06
2023-04-16T14:17:01.588Z,101596.16
2023-04-16T14:19:28.671Z,101591.56
2023-04-16T14:21:55.541Z,101600.53
2023-04-16T14:24:22.352Z,101599.63
2023-04-16T14:26:49.020Z,101599.50
2023-04-16T14:29:17.113Z,101598.59
2023-04-16T14:31:43.817Z,101606.75
2023-04-16T14:34:11.269Z,101596.81
2023-04-16T14:36:39.475Z,101605.78
2023-04-16T14:39:07.451Z,101592.16
2023-04-16T14:41:35.160Z,101598.50
2023-04-16T14:44:04.099Z,101595.81
2023-04-16T14:46:33.536Z,101595.78
2023-04-16T14:49:01.182Z,101604.81
2023-04-16T14:51:29.288Z,101605.72
2023-04-16T14:53:56.377Z,101604.16
2023-04-16T14:56:23.317Z,101616.88
2023-04-16T14:58:50.272Z,101616.06
2023-04-16T15:01:17.630Z,101620.66
2023-04-16T15:03:44.808Z,101621.63
2023-04-16T15:06:13.832Z,101615.38
2023-04-16T15:08:41.381Z,101609.03
2023-04-16T15:11:08.145Z,101617.09
2023-04-16T15:13:35.448Z,101619.88
2023-04-16T15:16:07.547Z,101614.41
2023-04-16T15:18:36.669Z,101615.34
2023-04-16T15:21:04.498Z,101620.84
2023-04-16T15:23:33.535Z,101620.84
2023-04-16T15:26:00.193Z,101618.06
2023-04-16T15:28:27.083Z,101618.13
2023-04-16T15:30:54.096Z,101621.75
2023-04-16T15:33:21.897Z,101622.63
2023-04-16T15:35:51.738Z,101626.25
2023-04-16T15:38:21.242Z,101629.00
2023-04-16T15:40:48.162Z,101631.63
2023-04-16T15:43:16.125Z,101633.47
2023-04-16T15:45:44.010Z,101635.28
2023-04-16T15:48:11.037Z,101630.81
2023-04-16T15:50:38.147Z,101637.19
2023-04-16T15:53:05.350Z,101638.16
2023-04-16T15:55:32.190Z,101631.88
2023-04-16T15:57:58.995Z,101634.66
2023-04-16T16:00:26.220Z,101638.28
2023-04-16T16:02:53.086Z,101636.47
2023-04-16T16:05:19.850Z,101641.94
2023-04-16T16:07:46.820Z,101644.63
2023-04-16T16:10:13.749Z,101648.25
2023-04-16T16:12:43.373Z,101640.97
2023-04-16T16:15:11.512Z,101660.88
2023-04-16T16:17:39.109Z,101655.47
2023-04-16T16:20:09.498Z,101651.88
2023-04-16T16:22:38.196Z,101655.50
2023-04-16T16:25:05.740Z,101655.53
2023-04-16T16:27:37.953Z,101660.06
2023-04-16T16:30:07.172Z,101663.72
2023-04-16T16:32:40.950Z,101661.06
2023-04-16T16:35:08.976Z,101662.84
2023-04-16T16:37:38.251Z,101667.38
2023-04-16T16:40:05.765Z,101661.09
2023-04-16T16:42:32.518Z,101663.81
2023-04-16T16:45:05.171Z,101668.34
2023-04-16T16:47:33.251Z,101670.16
2023-04-16T16:50:03.010Z,101668.38
2023-04-16T16:52:30.548Z,101670.19
2023-04-16T16:54:58.105Z,101673.81
2023-04-16T16:57:27.025Z,101672.00
2023-04-16T16:59:54.869Z,101676.50
2023-04-16T17:02:23.360Z,101672.91
2023-04-16T17:04:51.803Z,101672.91
2023-04-16T17:07:19.105Z,101670.22
2023-04-16T17:09:46.265Z,101670.19
2023-04-16T17:12:13.146Z,101677.41
2023-04-16T17:14:39.980Z,101681.03
2023-04-16T17:17:06.918Z,101681.06
2023-04-16T17:19:34.126Z,101681.97
2023-04-16T17:22:01.292Z,101682.88
2023-04-16T17:24:28.940Z,101690.09
2023-04-16T17:26:55.817Z,101682.88
2023-04-16T17:29:26.165Z,101681.06
2023-04-16T17:31:53.726Z,101691.91
2023-04-16T17:34:21.925Z,101693.72
2023-04-16T17:36:50.740Z,101696.41
2023-04-16T17:39:17.854Z,101700.97
2023-04-16T17:41:45.045Z,101700.94
2023-04-16T17:44:12.931Z,101705.47
2023-04-16T17:46:41.097Z,101708.19
2023-04-16T17:49:09.111Z,101709.97
2023-04-16T17:51:36.994Z,101714.47
2023-04-16T17:54:07.144Z,101711.78
2023-04-16T17:56:35.566Z,101717.19
2023-04-16T17:59:03.081Z,101723.50
2023-04-16T18:01:30.018Z,101720.78
2023-04-16T18:03:56.814Z,101727.09
2023-04-16T18:06:23.704Z,101731.59
2023-04-16T18:08:50.576Z,101729.78
2023-04-16T18:11:17.404Z,101731.56
2023-04-16T18:13:44.399Z,101743.28
2023-04-16T18:16:17.601Z,101742.38
2023-04-16T18:18:47.191Z,101744.16
2023-04-16T18:21:13.940Z,101741.44
2023-04-16T18:23:41.190Z,101749.56
2023-04-16T18:26:09.445Z,101753.13
2023-04-16T18:28:39.266Z,101763.03
2023-04-16T18:31:07.807Z,101765.72
2023-04-16T18:33:54.107Z,101765.72
2023-04-16T18:36:22.715Z,101762.97
2023-04-16T18:39:00.860Z,101772.88
2023-04-16T18:41:38.174Z,101773.75
2023-04-16T18:44:06.548Z,101771.03
2023-04-16T18:46:33.629Z,101780.00
2023-04-16T18:49:00.598Z,101786.34
2023-04-16T18:51:27.632Z,101780.94
2023-04-16T18:53:55.335Z,101782.75
2023-04-16T18:56:22.165Z,101793.56
2023-04-16T18:58:49.480Z,101785.41
2023-04-16T19:01:16.857Z,101798.00
2023-04-16T19:03:45.525Z,101790.75
2023-04-16T19:06:13.919Z,101791.69
2023-04-16T19:08:40.881Z,101803.38
2023-04-16T19:11:07.829Z,101799.75
2023-04-16T19:13:34.509Z,101801.56
2023-04-16T19:16:05.926Z,101803.31
2023-04-16T19:18:32.672Z,101805.13
2023-04-16T19:21:00.874Z,101806.03
2023-04-16T19:23:28.859Z,101801.50
2023-04-16T19:25:56.667Z,101807.78
2023-04-16T19:28:23.960Z,101803.25
2023-04-16T19:30:51.375Z,101806.84
2023-04-16T19:33:18.770Z,101808.66
2023-04-16T19:35:47.233Z,101819.47
2023-04-16T19:38:14.398Z,101823.06
2023-04-16T19:40:44.333Z,101822.16
2023-04-16T19:43:11.090Z,101819.47
2023-04-16T19:45:43.175Z,101823.06
2023-04-16T19:48:10.078Z,101818.53
2023-04-16T19:50:41.187Z,101817.66
2023-04-16T19:53:09.042Z,101823.03
2023-04-16T19:55:35.825Z,101827.50
2023-04-16T19:58:06.199Z,101823.84
2023-04-16T20:00:34.149Z,101823.88
2023-04-16T20:03:00.728Z,101821.16
2023-04-16T20:05:27.509Z,101822.97
2023-04-16T20:07:54.432Z,101824.72
2023-04-16T20:10:21.372Z,101823.84
2023-04-16T20:12:49.053Z,101825.66
2023-04-16T20:15:17.086Z,101822.97
2023-04-16T20:17:44.062Z,101823.78
2023-04-16T20:20:11.225Z,101825.59
2023-04-16T20:22:39.492Z,101828.28
2023-04-16T20:25:07.453Z,101834.56
2023-04-16T20:27:34.588Z,101828.25
2023-04-16T20:30:02.221Z,101830.94
2023-04-16T20:32:29.464Z,101827.34
2023-04-16T20:34:56.329Z,101828.22
2023-04-16T20:37:22.951Z,101827.34
2023-04-16T20:39:54.119Z,101837.28
2023-04-16T20:42:22.597Z,101832.72
2023-04-16T20:44:56.154Z,101832.69
2023-04-16T20:47:22.918Z,101833.53
2023-04-16T20:49:49.851Z,101827.25
2023-04-16T20:52:16.760Z,101829.00
2023-04-16T20:54:43.882Z,101825.44
2023-04-16T20:57:10.876Z,101835.34
2023-04-16T20:59:37.728Z,101836.22
2023-04-16T21:02:04.663Z,101838.94
2023-04-16T21:04:31.571Z,101832.66
2023-04-16T21:06:58.272Z,101833.53
2023-04-16T21:09:24.938Z,101839.03
2023-04-16T21:11:51.490Z,101844.34
2023-04-16T21:14:19.115Z,101839.81
2023-04-16T21:16:45.845Z,101844.25
2023-04-16T21:19:13.649Z,101845.19
2023-04-16T21:21:45.420Z,101837.97
2023-04-16T21:24:12.526Z,101834.28
2023-04-16T21:26:40.186Z,101844.19
2023-04-16T21:29:08.534Z,101835.09
2023-04-16T21:31:35.379Z,101844.09
2023-04-16T21:34:03.232Z,101840.47
2023-04-16T21:36:35.006Z,101835.06
2023-04-16T21:39:07.143Z,101841.31
2023-04-16T21:41:38.267Z,101842.22
2023-04-16T21:44:06.155Z,101842.19
2023-04-16T21:46:32.924Z,101841.28
2023-04-16T21:48:59.755Z,101840.38
2023-04-16T21:51:29.708Z,101846.63
2023-04-16T21:53:56.574Z,101846.63
2023-04-16T21:56:27.013Z,101847.56
2023-04-16T21:58:53.642Z,101852.00
2023-04-16T22:01:22.263Z,101852.84
2023-04-16T22:03:51.791Z,101858.25
2023-04-16T22:06:20.280Z,101856.44
2023-04-16T22:08:47.072Z,101851.88
2023-04-16T22:11:13.737Z,101857.28
2023-04-16T22:13:42.264Z,101856.41
2023-04-16T22:16:11.537Z,101857.25
2023-04-16T22:18:38.680Z,101853.69
2023-04-16T22:21:05.347Z,101859.97
2023-04-16T22:23:32.047Z,101859.03
2023-04-16T22:25:58.701Z,101865.31
2023-04-16T22:28:25.280Z,101859.03
2023-04-16T22:30:51.943Z,101860.75
2023-04-16T22:33:20.247Z,101860.78
2023-04-16T22:35:46.888Z,101859.88
2023-04-16T22:38:13.507Z,101853.59
2023-04-16T22:40:40.373Z,101858.91
2023-04-16T22:43:06.956Z,101859.81
2023-04-16T22:45:40.965Z,101862.47
2023-04-16T22:48:07.759Z,101857.06
2023-04-16T22:50:34.417Z,101866.09
2023-04-16T22:53:00.986Z,101860.69
2023-04-16T22:55:27.598Z,101849.91
2023-04-16T22:57:54.204Z,101862.47
2023-04-16T23:00:21.110Z,101863.34
2023-04-16T23:02:47.875Z,101858.88
2023-04-16T23:05:14.572Z,101865.09
2023-04-16T23:07:41.244Z,101861.47
2023-04-16T23:10:08.548Z,101859.66
2023-04-16T23:12:37.313Z,101865.03
2023-04-16T23:15:06.628Z,101858.75
2023-04-16T23:17:35.006Z,101860.53
2023-04-16T23:20:02.083Z,101860.47
2023-04-16T23:22:28.744Z,101869.44
2023-04-16T23:24:55.557Z,101861.34
2023-04-16T23:27:22.151Z,101864.97
2023-04-16T23:29:48.785Z,101866.66
2023-04-16T23:32:15.359Z,101869.28
2023-04-16T23:34:42.144Z,101869.25
2023-04-16T23:37:09.975Z,101865.66
2023-04-16T23:39:36.664Z,101876.38
2023-04-16T23:42:03.604Z,101864.72
2023-04-16T23:44:30.545Z,101861.03
2023-04-16T23:46:57.257Z,101873.63
2023-04-16T23:49:24.070Z,101871.78
2023-04-16T23:51:54.103Z,101869.03
2023-04-16T23:54:21.312Z,101871.69
2023-04-16T23:56:48.021Z,101873.50
2023-04-16T23:59:16.856Z,101875.22
